Pagrindinis puslapis
METAR-TAF:

METAR-TAF

Oro uostai :

Odensė, Danija

platuma: 55-29N, ilguma: 010-20E, Aukštis: 17 m

Dabartinis oras

Ataskaita buvo paskelbta 1 valandą ir 9 minutes, ne 07:50 UTC
Vėjas 11 kt iš Vakarų/Šiaurės Vakarų
Temperatūra 0°C
Drėgmė 93%
Slėgis 1008 hPa
Matomumas 10 km arba daugiau
Mažai debesys ne aukštis 3700 ft

METAR: EKOD 070750Z 29011KT 9999 FEW037 M00/M01 Q1008

Laikas: 09:59 (08:59 UTC)

Prognozė

Ataskaita buvo paskelbta 2 valandos ir 3 minutes, ne 06:56 UTC
Prognozė galioja nuo 07 metu 07 UTC su 07 metu 15 UTC
Vėjas 10 kt iš Vakarų/Šiaurės Vakarų
Matomumas 10 km arba daugiau
Su prošvaistėmis ne aukštis 2000 ft
Laikinai
nuo 07 metu 08 UTC su 07 metu 15 UTC
Vėjas 15 kt iš Šiaurės Vakarų su gūsio iki 25 kt
Matomumas: 1500 m
Su prošvaistėmis ne aukštis 600 ft
Išsisklaidę debesys ne aukštis 1500 ft, Liūtiniai kamuoliniai debesys.
sniegas, lietus

TAF: EKOD 070656Z 0707/0715 29010KT 9999 BKN020 TEMPO 0708/0715 32015G25KT 1500 SHSNRA BKN006 SCT015CB

Orai ataskaitas ir orų prognozės (METAR, TAF).

turimą stotys yra geltonos ir raudonos taškus žemėlapyje.

Perkelti pele per norėdami pamatyti stoties vardą.

Tada spustelėkite, norėdami matyti oro stebėjimo ir prognozės.

Norėdami pakeisti žemėlapį: spustelėkite ant žalios mygtukų su juodo kryžiaus žemyn,; žalią mygtuką su brūkšneliu, jei norite nutolinti; arba žalių rodyklių gretimoms žemėlapius.


METAR-TAF: